Crew – Borlänge

TAF & METAR

METAR ESSD 250320Z AUTO VRB03KT 9999 SCT096/// 09/08 Q0994=
=

Väderkartor

NOTAM (4DYGN)

Last updated Sun Jun 25 03:03:01 UTC 2017

ESSD/BORLANGE


+ ILS OM RWY 32 OUT OF SERVICE
FROM: 22 JUN 2017 11:35 TO: 27 JUN 2017 10:00 EST ES/B1960/17

- TWY C CLOSED
FROM: 03 MAY 2017 10:32 TO: 03 AUG 2017 10:00 EST ES/B1255/17
ESSC/ESKILSTUNA/EKEBY

NIL

LHP – Område B – Norra delen (LHP Karta) – BORLÄNGE = Område 2A

Norra delen
            
  • Informationen på denna sida är ej uppdaterad. Kontakta FPC.

Nordvästra delen

  • Informationen på denna sida är ej uppdaterad. Kontakta FPC.

Sydöstra delen

  • Informationen på denna sida är ej uppdaterad. Kontakta FPC.

Södra delen

  • Informationen på denna sida är ej uppdaterad. Kontakta FPC.

Prel prognos

  • Informationen på denna sida är ej uppdaterad. Kontakta FPC.

Systemkrav

  • AROWeb är optimerad för IE 11, Firefox 52, Chrome 56 och iPad (IOS 10). Mobilsiten är optimerad för IOS 10 Iphone/iPad och Android 6. Äldre versioner är inte verifierade och full funktionalitet kan inte garanteras i övriga webbläsare eller smartphones/tablets.

  • LFV har ett integrerat ledningssystem som är certifierat mot ISO9001- och 14001 samt uppfyller kraven i ISO27001 och 15489

  • Utvecklad av Gaia System AB
    3.11.0.3